createdAt,value
2019-02-19T00:00:32.244Z,11.7
2019-02-19T00:01:33.631Z,11.7
2019-02-19T00:02:35.018Z,11.6
2019-02-19T00:03:36.406Z,11.7
2019-02-19T00:04:37.801Z,11.6
2019-02-19T00:05:39.189Z,11.7
2019-02-19T00:06:40.581Z,11.6
2019-02-19T00:07:41.979Z,11.6
2019-02-19T00:08:43.366Z,11.6
2019-02-19T00:09:44.754Z,11.6
2019-02-19T00:10:46.152Z,11.6
2019-02-19T00:11:47.541Z,11.5
2019-02-19T00:12:48.932Z,11.5
2019-02-19T00:13:50.316Z,11.5
2019-02-19T00:14:51.712Z,11.5
2019-02-19T00:15:53.103Z,11.4
2019-02-19T00:16:54.488Z,11.4
2019-02-19T00:17:55.872Z,11.3
2019-02-19T00:18:57.264Z,11.4
2019-02-19T00:19:58.650Z,11.4
2019-02-19T00:21:00.046Z,11.3
2019-02-19T00:22:01.432Z,11.3
2019-02-19T00:23:02.822Z,11.4
2019-02-19T00:24:04.206Z,11.4
2019-02-19T00:25:05.601Z,11.4
2019-02-19T00:26:06.988Z,11.4
2019-02-19T00:27:08.382Z,11.5
2019-02-19T00:28:09.769Z,11.5
2019-02-19T00:29:11.163Z,11.5
2019-02-19T00:30:12.601Z,11.4
2019-02-19T00:31:13.941Z,11.4
2019-02-19T00:32:15.326Z,11.5
2019-02-19T00:33:16.721Z,11.4
2019-02-19T00:34:18.112Z,11.5
2019-02-19T00:35:19.501Z,11.5
2019-02-19T00:36:20.890Z,11.4
2019-02-19T00:37:22.282Z,11.4
2019-02-19T00:38:23.670Z,11.4
2019-02-19T00:39:25.065Z,11.5
2019-02-19T00:40:26.461Z,11.5
2019-02-19T00:41:27.853Z,11.5
2019-02-19T00:42:29.245Z,11.4
2019-02-19T00:43:30.640Z,11.4
2019-02-19T00:44:32.023Z,11.4
2019-02-19T00:45:33.416Z,11.5
2019-02-19T00:46:34.805Z,11.4
2019-02-19T00:47:36.201Z,11.4
2019-02-19T00:48:37.709Z,11.3
2019-02-19T00:49:38.992Z,11.3
2019-02-19T00:50:40.380Z,11.3
2019-02-19T00:51:41.770Z,11.3
2019-02-19T00:52:43.155Z,11.2
2019-02-19T00:53:44.548Z,11.2
2019-02-19T00:54:45.940Z,11.3
2019-02-19T00:55:47.327Z,11.3
2019-02-19T00:56:48.714Z,11.2
2019-02-19T00:57:50.111Z,11.1
2019-02-19T00:58:51.500Z,11.2
2019-02-19T00:59:52.887Z,11.1
2019-02-19T01:00:54.272Z,11.1
2019-02-19T01:01:55.664Z,11.1
2019-02-19T01:02:57.057Z,11.2
2019-02-19T01:03:58.452Z,11.1
2019-02-19T01:04:59.850Z,11.0
2019-02-19T01:06:01.240Z,11.0
2019-02-19T01:07:02.626Z,10.9
2019-02-19T01:08:04.036Z,10.9
2019-02-19T01:09:05.413Z,10.9
2019-02-19T01:10:06.803Z,10.9
2019-02-19T01:11:08.192Z,10.8
2019-02-19T01:12:09.582Z,10.8
2019-02-19T01:13:10.973Z,10.7
2019-02-19T01:14:12.361Z,10.7
2019-02-19T01:15:13.748Z,10.7
2019-02-19T01:16:15.137Z,10.7
2019-02-19T01:17:16.527Z,10.6
2019-02-19T01:18:17.918Z,10.7
2019-02-19T01:19:19.311Z,10.6
2019-02-19T01:20:20.698Z,10.6
2019-02-19T01:21:22.084Z,10.6
2019-02-19T01:22:23.476Z,10.5
2019-02-19T01:23:24.862Z,10.5
2019-02-19T01:24:26.250Z,10.5
2019-02-19T01:25:27.640Z,10.5
2019-02-19T01:26:29.034Z,10.4
2019-02-19T01:27:30.415Z,10.5
2019-02-19T01:28:31.800Z,10.5
2019-02-19T01:29:33.188Z,10.5
2019-02-19T01:30:34.582Z,10.4
2019-02-19T01:31:35.974Z,10.5
2019-02-19T01:32:37.366Z,10.4
2019-02-19T01:33:38.760Z,10.3
2019-02-19T01:34:40.159Z,10.3
2019-02-19T01:35:41.551Z,10.3
2019-02-19T01:36:42.942Z,10.3
2019-02-19T01:37:44.330Z,10.3
2019-02-19T01:38:45.715Z,10.3
2019-02-19T01:39:47.905Z,10.2
2019-02-19T01:40:48.518Z,10.2
2019-02-19T01:41:49.910Z,10.2
2019-02-19T01:42:51.303Z,10.2
2019-02-19T01:43:52.691Z,10.2
2019-02-19T01:44:54.077Z,10.2
2019-02-19T01:45:55.470Z,10.2
2019-02-19T01:46:56.857Z,10.1
2019-02-19T01:47:58.258Z,10.1
2019-02-19T01:48:59.649Z,10.1
2019-02-19T01:50:01.035Z,10.0
2019-02-19T01:51:02.422Z,10.0
2019-02-19T01:52:03.814Z,10.0
2019-02-19T01:53:05.209Z,10.0
2019-02-19T01:54:06.600Z,10.0
2019-02-19T01:55:07.986Z,9.9
2019-02-19T01:56:09.369Z,9.9
2019-02-19T01:57:10.759Z,9.8
2019-02-19T01:58:12.151Z,10.0
2019-02-19T01:59:13.537Z,10.0
2019-02-19T02:00:14.924Z,10.0
2019-02-19T02:01:16.313Z,10.0
2019-02-19T02:02:17.699Z,10.0
2019-02-19T02:03:19.085Z,10.0
2019-02-19T02:04:20.477Z,10.0
2019-02-19T02:05:21.866Z,10.0
2019-02-19T02:06:23.256Z,10.0
2019-02-19T02:07:24.652Z,10.0
2019-02-19T02:08:26.045Z,9.9
2019-02-19T02:09:27.439Z,10.1
2019-02-19T02:10:28.823Z,10.0
2019-02-19T02:11:30.213Z,10.1
2019-02-19T02:12:31.603Z,10.1
2019-02-19T02:13:32.994Z,10.1
2019-02-19T02:14:34.382Z,10.1
2019-02-19T02:15:42.536Z,10.1
2019-02-19T02:16:37.131Z,10.0
2019-02-19T02:17:38.519Z,10.1
2019-02-19T02:18:39.905Z,10.0
2019-02-19T02:19:41.292Z,10.1
2019-02-19T02:20:42.683Z,10.0
2019-02-19T02:21:44.072Z,10.0
2019-02-19T02:22:45.462Z,10.0
2019-02-19T02:23:46.853Z,10.0
2019-02-19T02:24:48.240Z,10.0
2019-02-19T02:25:49.630Z,10.1
2019-02-19T02:26:51.016Z,10.0
2019-02-19T02:27:52.401Z,10.0
2019-02-19T02:28:53.791Z,10.0
2019-02-19T02:29:55.248Z,10.0
2019-02-19T02:30:56.665Z,10.0
2019-02-19T02:31:58.059Z,10.0
2019-02-19T02:32:59.451Z,10.0
2019-02-19T02:34:00.837Z,10.1
2019-02-19T02:35:02.251Z,9.9
2019-02-19T02:36:03.617Z,10.0
2019-02-19T02:37:05.000Z,9.9
2019-02-19T02:38:06.396Z,10.0
2019-02-19T02:39:07.788Z,10.0
2019-02-19T02:40:09.181Z,10.1
2019-02-19T02:41:10.563Z,10.1
2019-02-19T02:42:11.952Z,10.1
2019-02-19T02:43:13.346Z,10.0
2019-02-19T02:44:14.733Z,10.0
2019-02-19T02:45:16.122Z,10.0
2019-02-19T02:46:17.512Z,10.0
2019-02-19T02:47:18.898Z,9.9
2019-02-19T02:48:20.286Z,10.0
2019-02-19T02:49:21.672Z,10.0
2019-02-19T02:50:23.060Z,10.0
2019-02-19T02:51:24.454Z,9.9
2019-02-19T02:52:25.840Z,10.0
2019-02-19T02:53:27.233Z,10.0
2019-02-19T02:54:28.689Z,9.9
2019-02-19T02:55:30.069Z,9.9
2019-02-19T02:56:31.459Z,9.9
2019-02-19T02:57:32.858Z,10.0
2019-02-19T02:58:34.244Z,9.9
2019-02-19T02:59:35.630Z,10.0
2019-02-19T03:00:37.017Z,9.9
2019-02-19T03:01:38.410Z,9.8
2019-02-19T03:02:39.796Z,9.7
2019-02-19T03:03:41.187Z,9.8
2019-02-19T03:04:42.577Z,9.8
2019-02-19T03:05:43.966Z,9.8
2019-02-19T03:06:45.360Z,9.8
2019-02-19T03:07:46.766Z,9.9
2019-02-19T03:08:48.135Z,9.9
2019-02-19T03:09:49.527Z,9.9
2019-02-19T03:10:50.916Z,9.8
2019-02-19T03:11:52.303Z,9.8
2019-02-19T03:12:53.700Z,9.8
2019-02-19T03:13:55.092Z,9.9
2019-02-19T03:14:56.479Z,9.9
2019-02-19T03:16:02.495Z,9.8
2019-02-19T03:16:59.225Z,9.8
2019-02-19T03:18:00.620Z,9.9
2019-02-19T03:19:02.000Z,9.8
2019-02-19T03:20:03.425Z,9.8
2019-02-19T03:21:04.815Z,9.8
2019-02-19T03:22:06.205Z,9.9
2019-02-19T03:23:07.586Z,9.9
2019-02-19T03:24:08.973Z,9.8
2019-02-19T03:25:10.368Z,9.8
2019-02-19T03:26:11.768Z,9.9
2019-02-19T03:27:13.148Z,9.9
2019-02-19T03:28:14.536Z,9.8
2019-02-19T03:29:15.921Z,9.8
2019-02-19T03:30:17.312Z,9.8
2019-02-19T03:31:18.720Z,9.8
2019-02-19T03:32:20.096Z,9.9
2019-02-19T03:33:21.495Z,9.8
2019-02-19T03:34:22.886Z,9.8
2019-02-19T03:35:24.283Z,9.8
2019-02-19T03:36:25.664Z,9.8
2019-02-19T03:37:27.052Z,9.8
2019-02-19T03:38:28.435Z,9.8
2019-02-19T03:39:29.825Z,9.8
2019-02-19T03:40:31.221Z,9.8
2019-02-19T03:41:32.604Z,9.8
2019-02-19T03:42:33.991Z,9.7
2019-02-19T03:43:35.380Z,9.7
2019-02-19T03:44:36.771Z,9.6
2019-02-19T03:45:38.164Z,9.6
2019-02-19T03:46:39.556Z,9.6
2019-02-19T03:47:40.945Z,9.5
2019-02-19T03:48:42.343Z,9.6
2019-02-19T03:49:43.735Z,9.5
2019-02-19T03:50:45.118Z,9.5
2019-02-19T03:51:46.509Z,9.4
2019-02-19T03:52:47.900Z,9.5
2019-02-19T03:53:49.319Z,9.4
2019-02-19T03:54:50.702Z,9.4
2019-02-19T03:55:52.088Z,9.4
2019-02-19T03:56:53.484Z,9.4
2019-02-19T03:57:54.873Z,9.4
2019-02-19T03:58:56.263Z,9.4
2019-02-19T03:59:57.652Z,9.3
2019-02-19T04:00:59.043Z,9.3
2019-02-19T04:02:00.442Z,9.2
2019-02-19T04:03:01.832Z,9.3
2019-02-19T04:04:03.227Z,9.2
2019-02-19T04:05:04.620Z,9.3
2019-02-19T04:06:06.016Z,9.2
2019-02-19T04:07:07.411Z,9.3
2019-02-19T04:08:08.841Z,9.1
2019-02-19T04:09:10.190Z,9.1
2019-02-19T04:10:11.628Z,9.1
2019-02-19T04:11:13.087Z,9.2
2019-02-19T04:12:14.475Z,9.1
2019-02-19T04:13:15.863Z,9.2
2019-02-19T04:14:17.254Z,9.0
2019-02-19T04:15:18.636Z,9.0
2019-02-19T04:16:21.536Z,9.1
2019-02-19T04:17:21.379Z,9.1
2019-02-19T04:18:22.769Z,9.1
2019-02-19T04:19:24.156Z,9.1
2019-02-19T04:20:25.545Z,9.0
2019-02-19T04:21:26.949Z,9.1
2019-02-19T04:22:28.341Z,9.0
2019-02-19T04:23:29.764Z,9.0
2019-02-19T04:24:31.211Z,9.0
2019-02-19T04:25:32.586Z,9.0
2019-02-19T04:26:33.979Z,8.9
2019-02-19T04:27:35.369Z,9.0
2019-02-19T04:28:36.858Z,9.0
2019-02-19T04:29:38.250Z,9.0
2019-02-19T04:30:39.632Z,8.9
2019-02-19T04:31:41.026Z,9.0
2019-02-19T04:32:42.419Z,9.1
2019-02-19T04:33:43.807Z,9.1
2019-02-19T04:34:45.198Z,9.0
2019-02-19T04:35:46.586Z,9.1
2019-02-19T04:36:47.974Z,9.0
2019-02-19T04:37:49.365Z,9.0
2019-02-19T04:38:50.754Z,9.1
2019-02-19T04:39:52.144Z,9.0
2019-02-19T04:40:53.531Z,9.1
2019-02-19T04:41:54.922Z,9.0
2019-02-19T04:42:56.313Z,9.0
2019-02-19T04:43:57.701Z,9.0
2019-02-19T04:44:59.088Z,9.0
2019-02-19T04:46:00.482Z,9.0
2019-02-19T04:47:01.873Z,9.0
2019-02-19T04:48:03.267Z,9.0
2019-02-19T04:49:04.653Z,9.0
2019-02-19T04:50:06.046Z,9.0
2019-02-19T04:51:07.442Z,9.0
2019-02-19T04:52:08.819Z,9.0
2019-02-19T04:53:10.210Z,9.0
2019-02-19T04:54:11.601Z,8.8
2019-02-19T04:55:12.988Z,8.9
2019-02-19T04:56:14.376Z,9.0
2019-02-19T04:57:15.762Z,8.8
2019-02-19T04:58:17.152Z,8.9
2019-02-19T04:59:18.544Z,8.8
2019-02-19T05:00:19.962Z,8.9
2019-02-19T05:01:21.377Z,8.9
2019-02-19T05:02:22.773Z,8.8
2019-02-19T05:03:24.180Z,9.0
2019-02-19T05:04:25.584Z,8.8
2019-02-19T05:05:27.007Z,8.9
2019-02-19T05:06:28.406Z,8.9
2019-02-19T05:07:29.803Z,8.9
2019-02-19T05:08:31.193Z,8.8
2019-02-19T05:09:32.578Z,8.9
2019-02-19T05:10:33.968Z,8.9
2019-02-19T05:11:35.354Z,8.8
2019-02-19T05:12:36.737Z,9.0
2019-02-19T05:13:38.128Z,8.8
2019-02-19T05:14:39.520Z,8.8
2019-02-19T05:15:40.907Z,8.8
2019-02-19T05:16:42.300Z,8.8
2019-02-19T05:17:43.686Z,8.8
2019-02-19T05:18:45.072Z,8.8
2019-02-19T05:19:46.460Z,8.8
2019-02-19T05:20:47.865Z,8.8
2019-02-19T05:21:49.244Z,8.8
2019-02-19T05:22:50.641Z,8.8
2019-02-19T05:23:52.023Z,8.8
2019-02-19T05:24:53.411Z,8.8
2019-02-19T05:25:54.794Z,8.8
2019-02-19T05:26:56.182Z,8.8
2019-02-19T05:27:57.588Z,8.8
2019-02-19T05:28:58.998Z,8.8
2019-02-19T05:30:00.351Z,8.8
2019-02-19T05:31:01.738Z,8.8
2019-02-19T05:32:03.130Z,8.7
2019-02-19T05:33:04.521Z,8.7
2019-02-19T05:34:05.903Z,8.7
2019-02-19T05:35:07.291Z,8.7
2019-02-19T05:36:09.142Z,8.7
2019-02-19T05:37:10.111Z,8.7
2019-02-19T05:38:11.502Z,8.7
2019-02-19T05:39:12.890Z,8.6
2019-02-19T05:40:14.277Z,8.7
2019-02-19T05:41:15.679Z,8.6
2019-02-19T05:42:17.064Z,8.6
2019-02-19T05:43:18.452Z,8.6
2019-02-19T05:44:19.842Z,8.6
2019-02-19T05:45:21.231Z,8.6
2019-02-19T05:46:22.637Z,8.6
2019-02-19T05:47:24.026Z,8.7
2019-02-19T05:48:25.407Z,8.6
2019-02-19T05:49:26.798Z,8.7
2019-02-19T05:50:28.282Z,8.6
2019-02-19T05:51:29.719Z,8.6
2019-02-19T05:52:31.112Z,8.6
2019-02-19T05:53:32.500Z,8.6
2019-02-19T05:54:33.892Z,8.7
2019-02-19T05:55:35.281Z,8.6
2019-02-19T05:56:36.674Z,8.7
2019-02-19T05:57:38.056Z,8.7
2019-02-19T05:58:39.453Z,8.7
2019-02-19T05:59:40.839Z,8.6
2019-02-19T06:00:42.226Z,8.6
2019-02-19T06:01:43.613Z,8.6
2019-02-19T06:02:45.006Z,8.6
2019-02-19T06:03:46.390Z,8.6
2019-02-19T06:04:47.778Z,8.6
2019-02-19T06:05:49.174Z,8.6
2019-02-19T06:06:50.565Z,8.6
2019-02-19T06:07:51.963Z,8.6
2019-02-19T06:08:53.359Z,8.6
2019-02-19T06:09:54.750Z,8.6
2019-02-19T06:10:56.148Z,8.6
2019-02-19T06:11:57.539Z,8.6
2019-02-19T06:12:59.432Z,8.6
2019-02-19T06:14:00.811Z,8.5
2019-02-19T06:15:02.454Z,8.6
2019-02-19T06:16:03.877Z,8.6
2019-02-19T06:17:05.269Z,8.6
2019-02-19T06:18:06.660Z,8.6
2019-02-19T06:19:08.070Z,8.6
2019-02-19T06:20:09.489Z,8.5
2019-02-19T06:21:29.907Z,8.6
2019-02-19T06:22:31.295Z,8.6
2019-02-19T06:23:32.685Z,8.6
2019-02-19T06:24:34.071Z,8.6
2019-02-19T06:25:35.460Z,8.5
2019-02-19T06:26:37.303Z,8.6
2019-02-19T06:27:38.995Z,8.6
2019-02-19T06:28:40.373Z,8.5
2019-02-19T06:29:41.766Z,8.6
2019-02-19T06:30:43.153Z,8.6
2019-02-19T06:31:44.542Z,8.5
2019-02-19T06:33:30.952Z,8.6
2019-02-19T06:34:32.259Z,8.5
2019-02-19T06:35:33.657Z,8.5
2019-02-19T06:36:35.050Z,8.6
2019-02-19T06:37:36.442Z,8.6
2019-02-19T06:39:46.181Z,8.5
2019-02-19T06:40:47.559Z,8.5
2019-02-19T06:41:48.954Z,8.6
2019-02-19T06:42:50.364Z,8.5
2019-02-19T06:43:51.756Z,8.5
2019-02-19T06:44:54.063Z,8.6
2019-02-19T06:45:56.348Z,8.5
2019-02-19T06:46:57.737Z,8.6
2019-02-19T06:47:59.127Z,8.6
2019-02-19T06:49:00.522Z,8.6
2019-02-19T06:50:01.938Z,8.6
2019-02-19T06:51:03.761Z,8.6
2019-02-19T06:52:05.129Z,8.5
2019-02-19T06:53:06.525Z,8.5
2019-02-19T06:54:07.912Z,8.5
2019-02-19T06:55:09.338Z,8.6
2019-02-19T06:56:11.348Z,8.6
2019-02-19T06:57:13.263Z,8.6
2019-02-19T06:58:14.621Z,8.5
2019-02-19T06:59:16.009Z,8.5
2019-02-19T07:00:17.401Z,8.6
2019-02-19T07:01:20.694Z,8.6
2019-02-19T07:02:20.847Z,8.6
2019-02-19T07:03:22.234Z,8.6
2019-02-19T07:04:23.633Z,8.7
2019-02-19T07:05:25.092Z,8.6
2019-02-19T07:06:26.603Z,8.5
2019-02-19T07:07:28.522Z,8.6
2019-02-19T07:08:29.876Z,8.6
2019-02-19T07:09:31.273Z,8.6
2019-02-19T07:10:32.661Z,8.7
2019-02-19T07:11:34.053Z,8.7
2019-02-19T07:12:35.556Z,8.6
2019-02-19T07:13:43.125Z,8.6
2019-02-19T07:14:44.391Z,8.7
2019-02-19T07:15:45.839Z,8.6
2019-02-19T07:16:47.237Z,8.7
2019-02-19T07:17:49.297Z,8.7
2019-02-19T07:18:51.401Z,8.7
2019-02-19T07:19:52.836Z,8.7
2019-02-19T07:20:54.240Z,8.6
2019-02-19T07:21:55.627Z,8.7
2019-02-19T07:22:57.544Z,8.7
2019-02-19T07:24:04.503Z,8.7
2019-02-19T07:25:01.347Z,8.8
2019-02-19T07:26:02.733Z,8.8
2019-02-19T07:27:04.127Z,8.7
2019-02-19T07:28:05.514Z,8.6
2019-02-19T07:29:07.536Z,8.8
2019-02-19T07:30:08.902Z,8.7
2019-02-19T07:31:10.296Z,8.8
2019-02-19T07:32:11.694Z,8.7
2019-02-19T07:33:13.087Z,8.8
2019-02-19T07:34:15.308Z,8.8
2019-02-19T07:35:16.714Z,8.8
2019-02-19T07:36:18.109Z,8.8
2019-02-19T07:37:19.531Z,8.8
2019-02-19T07:38:20.999Z,8.8
2019-02-19T07:39:23.041Z,8.9
2019-02-19T07:40:24.421Z,8.9
2019-02-19T07:41:25.813Z,8.9
2019-02-19T07:42:27.205Z,8.8
2019-02-19T07:43:28.595Z,8.9
2019-02-19T07:44:30.576Z,8.9
2019-02-19T07:45:31.848Z,8.8
2019-02-19T07:46:33.247Z,8.9
2019-02-19T07:47:34.654Z,8.9
2019-02-19T07:48:36.053Z,8.9
2019-02-19T07:49:38.435Z,8.8
2019-02-19T07:50:49.542Z,8.8
2019-02-19T07:51:51.263Z,8.9
2019-02-19T07:52:56.207Z,8.8
2019-02-19T07:53:59.582Z,8.9
2019-02-19T07:55:00.979Z,8.9
2019-02-19T07:56:02.374Z,9.0
2019-02-19T07:57:03.762Z,9.0
2019-02-19T07:58:05.439Z,9.0
2019-02-19T07:59:06.834Z,9.0
2019-02-19T08:00:08.228Z,9.0
2019-02-19T08:01:09.620Z,9.0
2019-02-19T08:02:11.016Z,9.0
2019-02-19T08:03:19.389Z,9.0
2019-02-19T08:04:20.936Z,9.0
2019-02-19T08:05:22.306Z,9.0
2019-02-19T08:06:23.700Z,9.0
2019-02-19T08:07:25.088Z,9.0
2019-02-19T08:08:26.478Z,9.0
2019-02-19T08:09:28.707Z,9.0
2019-02-19T08:10:30.055Z,9.0
2019-02-19T08:11:31.447Z,9.1
2019-02-19T08:12:32.836Z,9.1
2019-02-19T08:13:34.226Z,9.1
2019-02-19T08:14:35.641Z,9.0
2019-02-19T08:15:37.512Z,9.0
2019-02-19T08:16:38.879Z,9.0
2019-02-19T08:17:40.278Z,9.2
2019-02-19T08:18:41.670Z,9.1
2019-02-19T08:19:43.065Z,9.1
2019-02-19T08:20:44.989Z,9.1
2019-02-19T08:21:46.398Z,9.1
2019-02-19T08:22:47.847Z,9.1
2019-02-19T08:23:49.235Z,9.0
2019-02-19T08:24:50.628Z,8.9
2019-02-19T08:25:52.414Z,9.1
2019-02-19T08:26:53.775Z,9.0
2019-02-19T08:27:55.226Z,9.1
2019-02-19T08:29:04.239Z,9.0
2019-02-19T08:29:58.034Z,9.0
2019-02-19T08:30:59.424Z,8.9
2019-02-19T08:32:00.852Z,9.0
2019-02-19T08:33:02.266Z,9.0
2019-02-19T08:34:03.665Z,9.0
2019-02-19T08:35:05.070Z,9.0
2019-02-19T08:36:06.466Z,9.0
2019-02-19T08:37:07.858Z,9.0
2019-02-19T08:38:09.263Z,9.0
2019-02-19T08:39:10.655Z,8.9
2019-02-19T08:40:12.077Z,8.9
2019-02-19T08:41:13.465Z,9.0
2019-02-19T08:42:14.888Z,9.1
2019-02-19T08:43:16.263Z,8.9
2019-02-19T08:44:17.677Z,9.0
2019-02-19T08:45:19.084Z,9.1
2019-02-19T08:46:20.496Z,9.1
2019-02-19T08:47:21.906Z,9.1
2019-02-19T08:48:23.307Z,9.0
2019-02-19T08:49:24.704Z,9.1
2019-02-19T08:50:26.098Z,9.2
2019-02-19T08:51:27.510Z,9.2
2019-02-19T08:52:28.902Z,9.1
2019-02-19T08:53:30.308Z,9.3
2019-02-19T08:54:31.744Z,9.2
2019-02-19T08:55:34.752Z,9.3
2019-02-19T08:56:34.463Z,9.3
2019-02-19T08:57:35.859Z,9.3
2019-02-19T08:58:37.260Z,9.3
2019-02-19T08:59:38.654Z,9.3
2019-02-19T09:00:40.054Z,9.3
2019-02-19T09:01:41.473Z,9.2
2019-02-19T09:02:42.869Z,9.3
2019-02-19T09:03:44.272Z,9.3
2019-02-19T09:04:45.674Z,9.3
2019-02-19T09:05:47.073Z,9.4
2019-02-19T09:06:48.478Z,9.4
2019-02-19T09:07:49.876Z,9.4
2019-02-19T09:08:51.287Z,9.6
2019-02-19T09:09:52.678Z,9.5
2019-02-19T09:10:54.074Z,9.6
2019-02-19T09:11:55.468Z,9.7
2019-02-19T09:12:56.858Z,9.8
2019-02-19T09:13:58.267Z,9.8
2019-02-19T09:14:59.675Z,9.8
2019-02-19T09:16:01.064Z,9.9
2019-02-19T09:17:02.457Z,9.9
2019-02-19T09:18:03.850Z,9.9
2019-02-19T09:19:05.247Z,10.0
2019-02-19T09:20:06.647Z,10.0
2019-02-19T09:21:08.067Z,10.1
2019-02-19T09:22:09.535Z,10.1
2019-02-19T09:23:10.953Z,10.1
2019-02-19T09:24:12.351Z,10.2
2019-02-19T09:25:13.754Z,10.2
2019-02-19T09:26:15.172Z,10.2
2019-02-19T09:27:16.572Z,10.2
2019-02-19T09:28:17.981Z,10.2
2019-02-19T09:29:19.378Z,10.3
2019-02-19T09:30:20.803Z,10.3
2019-02-19T09:31:22.245Z,10.4
2019-02-19T09:32:23.625Z,10.5
2019-02-19T09:33:25.019Z,10.4
2019-02-19T09:34:26.421Z,10.4
2019-02-19T09:35:27.817Z,10.5
2019-02-19T09:36:29.223Z,10.5
2019-02-19T09:37:30.622Z,10.6
2019-02-19T09:38:32.037Z,10.6
2019-02-19T09:39:33.434Z,10.6
2019-02-19T09:40:34.829Z,10.7
2019-02-19T09:41:36.233Z,10.7
2019-02-19T09:42:37.642Z,10.8
2019-02-19T09:43:39.065Z,10.9
2019-02-19T09:44:40.454Z,10.9
2019-02-19T09:45:41.848Z,10.9
2019-02-19T09:46:43.251Z,10.9
2019-02-19T09:47:44.647Z,10.9
2019-02-19T09:48:46.081Z,10.9
2019-02-19T09:49:47.476Z,11.0
2019-02-19T09:50:48.905Z,11.1
2019-02-19T09:51:50.298Z,11.0
2019-02-19T09:52:59.492Z,11.1
2019-02-19T09:53:53.061Z,11.1
2019-02-19T09:54:54.467Z,11.2
2019-02-19T09:55:55.856Z,11.3
2019-02-19T09:56:57.259Z,11.3
2019-02-19T09:57:58.655Z,11.4
2019-02-19T09:59:00.085Z,11.5
2019-02-19T10:00:01.500Z,11.7
2019-02-19T10:01:02.895Z,11.8
2019-02-19T10:02:04.296Z,12.0
2019-02-19T10:03:05.812Z,12.1
2019-02-19T10:04:07.229Z,12.1
2019-02-19T10:05:08.628Z,12.1
2019-02-19T10:06:10.025Z,12.1
2019-02-19T10:07:11.427Z,12.2
2019-02-19T10:08:12.839Z,12.3
2019-02-19T10:09:14.237Z,12.3
2019-02-19T10:10:15.683Z,12.4
2019-02-19T10:11:17.122Z,12.4
2019-02-19T10:12:18.542Z,12.5
2019-02-19T10:13:19.934Z,12.5
2019-02-19T10:14:21.332Z,12.4
2019-02-19T10:15:22.730Z,12.4
2019-02-19T10:16:24.160Z,12.4
2019-02-19T10:17:25.523Z,12.4
2019-02-19T10:18:26.925Z,12.4
2019-02-19T10:19:28.780Z,12.5
2019-02-19T10:20:30.181Z,12.5
2019-02-19T10:21:31.586Z,12.6
2019-02-19T10:22:32.980Z,12.5
2019-02-19T10:23:34.377Z,12.5
2019-02-19T10:24:35.782Z,12.5
2019-02-19T10:25:37.710Z,12.6
2019-02-19T10:26:40.613Z,12.8
2019-02-19T10:27:41.066Z,12.8
2019-02-19T10:28:42.471Z,12.6
2019-02-19T10:29:43.868Z,12.7
2019-02-19T10:30:45.270Z,12.7
2019-02-19T10:31:46.671Z,12.9
2019-02-19T10:32:48.068Z,13.1
2019-02-19T10:33:49.475Z,13.1
2019-02-19T10:34:50.875Z,13.3
2019-02-19T10:35:52.305Z,13.5
2019-02-19T10:36:53.704Z,13.5
2019-02-19T10:37:55.116Z,14.0
2019-02-19T10:38:56.515Z,14.4
2019-02-19T10:39:57.918Z,14.9
2019-02-19T10:40:59.322Z,15.2
2019-02-19T10:42:00.727Z,15.6
2019-02-19T10:43:02.124Z,15.7
2019-02-19T10:44:03.527Z,15.6
2019-02-19T10:45:04.931Z,16.1
2019-02-19T10:46:06.337Z,16.2
2019-02-19T10:47:07.951Z,16.6
2019-02-19T10:48:09.450Z,16.7
2019-02-19T10:49:10.859Z,16.8
2019-02-19T10:50:12.272Z,17.2
2019-02-19T10:51:13.672Z,16.8
2019-02-19T10:52:15.079Z,17.0
2019-02-19T10:53:16.491Z,17.0
2019-02-19T10:54:17.894Z,17.1
2019-02-19T10:55:19.317Z,17.7
2019-02-19T10:56:20.758Z,18.2
2019-02-19T10:57:22.161Z,17.9
2019-02-19T10:58:23.570Z,18.0
2019-02-19T10:59:24.978Z,17.9
2019-02-19T11:00:26.384Z,18.0
2019-02-19T11:01:27.787Z,18.2
2019-02-19T11:02:29.193Z,18.0
2019-02-19T11:03:30.598Z,18.4
2019-02-19T11:04:32.007Z,18.3
2019-02-19T11:05:33.410Z,18.1
2019-02-19T11:06:34.815Z,18.2
2019-02-19T11:07:36.223Z,18.4
2019-02-19T11:08:37.637Z,18.9
2019-02-19T11:09:39.042Z,18.6
2019-02-19T11:10:40.445Z,18.4
2019-02-19T11:11:41.861Z,18.9
2019-02-19T11:12:43.265Z,19.4
2019-02-19T11:13:44.662Z,19.2
2019-02-19T11:14:46.072Z,19.0
2019-02-19T11:15:47.475Z,18.7
2019-02-19T11:16:48.884Z,18.7
2019-02-19T11:17:50.289Z,18.7
2019-02-19T11:18:51.692Z,18.6
2019-02-19T11:19:53.094Z,19.4
2019-02-19T11:20:54.503Z,19.8
2019-02-19T11:21:55.903Z,19.7
2019-02-19T11:22:57.311Z,19.7
2019-02-19T11:23:58.715Z,19.5
2019-02-19T11:25:00.229Z,19.6
2019-02-19T11:26:01.498Z,19.4
2019-02-19T11:27:02.898Z,19.1
2019-02-19T11:28:04.303Z,18.4
2019-02-19T11:29:05.707Z,17.9
2019-02-19T11:30:07.112Z,17.3
2019-02-19T11:31:08.517Z,16.5
2019-02-19T11:32:09.919Z,16.3
2019-02-19T11:33:11.324Z,15.9
2019-02-19T11:34:12.762Z,15.6
2019-02-19T11:35:14.134Z,15.5
2019-02-19T11:36:15.540Z,15.7
2019-02-19T11:37:16.958Z,15.9
2019-02-19T11:38:18.355Z,15.9
2019-02-19T11:39:19.752Z,15.9
2019-02-19T11:40:21.154Z,16.2
2019-02-19T11:41:22.563Z,16.2
2019-02-19T11:42:23.962Z,16.3
2019-02-19T11:43:25.411Z,17.0
2019-02-19T11:44:26.823Z,17.5
2019-02-19T11:45:28.230Z,17.2
2019-02-19T11:46:29.636Z,16.3
2019-02-19T11:47:31.046Z,16.2
2019-02-19T11:48:37.037Z,15.7
2019-02-19T11:49:33.814Z,15.4
2019-02-19T11:50:35.215Z,15.1
2019-02-19T11:51:36.623Z,14.8
2019-02-19T11:52:38.038Z,14.7
2019-02-19T11:53:39.440Z,14.6
2019-02-19T11:54:40.861Z,14.5
2019-02-19T11:55:42.257Z,14.5
2019-02-19T11:56:43.656Z,14.4
2019-02-19T11:57:45.055Z,14.6
2019-02-19T11:58:46.464Z,14.5
2019-02-19T11:59:47.872Z,14.2
2019-02-19T12:00:49.263Z,14.3
2019-02-19T12:01:50.656Z,14.2
2019-02-19T12:02:52.057Z,14.3
2019-02-19T12:03:53.457Z,14.2
2019-02-19T12:04:54.856Z,14.4
2019-02-19T12:05:56.256Z,14.5
2019-02-19T12:06:57.655Z,14.5
2019-02-19T12:07:59.048Z,14.7
2019-02-19T12:09:00.453Z,14.7
2019-02-19T12:10:01.864Z,14.4
2019-02-19T12:11:03.261Z,14.2
2019-02-19T12:12:04.672Z,14.2
2019-02-19T12:13:06.074Z,14.2
2019-02-19T12:14:07.479Z,14.3
2019-02-19T12:15:08.879Z,14.2
2019-02-19T12:16:10.288Z,14.2
2019-02-19T12:17:11.693Z,14.0
2019-02-19T12:18:13.102Z,14.0
2019-02-19T12:19:14.513Z,14.1
2019-02-19T12:20:16.368Z,14.0
2019-02-19T12:21:17.747Z,13.8
2019-02-19T12:22:19.145Z,14.0
2019-02-19T12:23:20.545Z,14.0
2019-02-19T12:24:22.687Z,13.9
2019-02-19T12:25:24.089Z,13.8
2019-02-19T12:26:25.494Z,13.9
2019-02-19T12:27:26.902Z,13.9
2019-02-19T12:28:28.356Z,14.0
2019-02-19T12:29:29.878Z,14.0
2019-02-19T12:31:20.325Z,13.8
2019-02-19T12:32:21.836Z,13.4
2019-02-19T12:33:23.323Z,13.4
2019-02-19T12:34:24.710Z,13.4
2019-02-19T12:35:26.118Z,13.6
2019-02-19T12:36:27.521Z,13.6
2019-02-19T12:37:28.920Z,13.6
2019-02-19T12:38:30.329Z,13.4
2019-02-19T12:39:32.094Z,13.4
2019-02-19T12:40:33.468Z,13.2
2019-02-19T12:41:34.862Z,13.2
2019-02-19T12:42:36.350Z,13.1
2019-02-19T12:43:37.751Z,13.1
2019-02-19T12:44:39.179Z,12.8
2019-02-19T12:45:40.700Z,12.7
2019-02-19T12:46:42.190Z,12.7
2019-02-19T12:47:44.223Z,12.8
2019-02-19T12:48:54.179Z,12.7
2019-02-19T12:49:47.552Z,12.6
2019-02-19T12:50:48.962Z,12.5
2019-02-19T12:51:50.360Z,12.4
2019-02-19T12:52:51.756Z,12.3
2019-02-19T12:53:53.166Z,12.3
2019-02-19T12:54:54.563Z,12.2
2019-02-19T12:55:56.312Z,12.2
2019-02-19T12:56:57.705Z,12.5
2019-02-19T12:57:59.108Z,12.6
2019-02-19T12:59:00.512Z,12.6
2019-02-19T13:00:02.174Z,12.6
2019-02-19T13:01:03.575Z,12.6
2019-02-19T13:02:04.987Z,12.8
2019-02-19T13:03:06.421Z,13.0
2019-02-19T13:04:07.832Z,13.0
2019-02-19T13:05:09.232Z,13.0
2019-02-19T13:06:10.629Z,13.0
2019-02-19T13:07:12.022Z,13.2
2019-02-19T13:08:13.436Z,13.3
2019-02-19T13:09:15.064Z,13.4
2019-02-19T13:10:16.504Z,13.6
2019-02-19T13:11:17.909Z,13.8
2019-02-19T13:12:19.322Z,13.9
2019-02-19T13:13:20.722Z,13.8
2019-02-19T13:14:22.133Z,13.4
2019-02-19T13:15:23.543Z,13.2
2019-02-19T13:16:25.043Z,13.2
2019-02-19T13:17:26.444Z,13.4
2019-02-19T13:18:27.849Z,13.6
2019-02-19T13:19:29.585Z,13.8
2019-02-19T13:20:30.929Z,13.6
2019-02-19T13:21:32.329Z,13.8
2019-02-19T13:22:33.724Z,14.0
2019-02-19T13:23:35.583Z,13.8
2019-02-19T13:24:37.100Z,13.9
2019-02-19T13:25:38.512Z,13.9
2019-02-19T13:26:40.142Z,13.7
2019-02-19T13:27:41.549Z,13.6
2019-02-19T13:28:43.006Z,13.8
2019-02-19T13:29:44.403Z,14.0
2019-02-19T13:30:45.928Z,14.1
2019-02-19T13:31:47.322Z,13.9
2019-02-19T13:32:48.725Z,13.9
2019-02-19T13:33:50.193Z,13.8
2019-02-19T13:34:51.592Z,13.9
2019-02-19T13:35:53.053Z,13.9
2019-02-19T13:36:54.453Z,13.6
2019-02-19T13:37:55.871Z,13.6
2019-02-19T13:38:57.291Z,13.6
2019-02-19T13:39:58.691Z,13.6
2019-02-19T13:41:00.092Z,13.4
2019-02-19T13:42:01.545Z,13.4
2019-02-19T13:43:02.930Z,13.3
2019-02-19T13:44:04.328Z,13.3
2019-02-19T13:45:05.733Z,13.4
2019-02-19T13:46:07.134Z,13.3
2019-02-19T13:47:08.560Z,13.3
2019-02-19T13:48:09.955Z,13.5
2019-02-19T13:49:12.476Z,13.3
2019-02-19T13:50:12.708Z,13.3
2019-02-19T13:51:14.135Z,13.5
2019-02-19T13:52:22.373Z,13.6
2019-02-19T13:53:16.896Z,13.9
2019-02-19T13:54:18.325Z,13.7